createdAt,value
2023-05-17T00:00:57.220Z,36.80
2023-05-17T00:01:57.127Z,36.78
2023-05-17T00:02:57.116Z,36.81
2023-05-17T00:03:57.082Z,36.78
2023-05-17T00:04:57.201Z,36.84
2023-05-17T00:05:57.111Z,36.77
2023-05-17T00:06:57.044Z,36.78
2023-05-17T00:07:57.031Z,36.74
2023-05-17T00:08:57.021Z,36.77
2023-05-17T00:09:57.003Z,36.75
2023-05-17T00:10:56.985Z,36.71
2023-05-17T00:11:57.069Z,36.69
2023-05-17T00:12:56.961Z,36.69
2023-05-17T00:13:56.954Z,36.69
2023-05-17T00:14:56.931Z,36.67
2023-05-17T00:15:56.917Z,36.65
2023-05-17T00:16:56.913Z,36.67
2023-05-17T00:17:56.969Z,36.64
2023-05-17T00:18:56.931Z,36.63
2023-05-17T00:19:56.869Z,36.64
2023-05-17T00:20:56.837Z,36.63
2023-05-17T00:21:56.821Z,36.58
2023-05-17T00:22:56.814Z,36.62
2023-05-17T00:23:56.800Z,36.58
2023-05-17T00:24:56.772Z,36.54
2023-05-17T00:25:56.745Z,36.53
2023-05-17T00:26:56.745Z,36.52
2023-05-17T00:27:56.825Z,36.52
2023-05-17T00:28:56.696Z,36.49
2023-05-17T00:29:56.692Z,36.53
2023-05-17T00:30:56.662Z,36.47
2023-05-17T00:31:56.647Z,36.47
2023-05-17T00:32:56.694Z,36.48
2023-05-17T00:33:56.626Z,36.48
2023-05-17T00:34:56.649Z,36.47
2023-05-17T00:35:56.617Z,36.48
2023-05-17T00:36:56.577Z,36.42
2023-05-17T00:37:56.577Z,36.43
2023-05-17T00:38:56.554Z,36.41
2023-05-17T00:39:56.534Z,36.43
2023-05-17T00:40:56.514Z,36.36
2023-05-17T00:41:56.501Z,36.41
2023-05-17T00:42:56.489Z,36.40
2023-05-17T00:43:56.575Z,36.42
2023-05-17T00:44:56.458Z,36.36
2023-05-17T00:45:56.445Z,36.40
2023-05-17T00:46:56.421Z,36.41
2023-05-17T00:47:56.527Z,36.38
2023-05-17T00:48:56.410Z,36.37
2023-05-17T00:49:56.402Z,36.37
2023-05-17T00:50:56.399Z,36.35
2023-05-17T00:51:56.387Z,36.36
2023-05-17T00:52:56.391Z,36.32
2023-05-17T00:53:56.381Z,36.36
2023-05-17T00:54:56.380Z,36.39
2023-05-17T00:55:56.361Z,36.36
2023-05-17T00:56:56.346Z,36.35
2023-05-17T00:57:56.357Z,36.35
2023-05-17T00:58:56.385Z,36.33
2023-05-17T00:59:56.375Z,36.33
2023-05-17T01:00:56.355Z,36.31
2023-05-17T01:01:56.473Z,36.32
2023-05-17T01:02:56.461Z,36.27
2023-05-17T01:03:56.370Z,36.32
2023-05-17T01:04:56.346Z,36.34
2023-05-17T01:05:56.306Z,36.30
2023-05-17T01:06:56.305Z,36.31
2023-05-17T01:07:56.301Z,36.35
2023-05-17T01:08:56.309Z,36.36
2023-05-17T01:09:56.310Z,36.28
2023-05-17T01:10:56.327Z,36.27
2023-05-17T01:11:56.326Z,36.31
2023-05-17T01:12:56.318Z,36.29
2023-05-17T01:13:56.305Z,36.31
2023-05-17T01:14:56.304Z,36.30
2023-05-17T01:15:56.376Z,36.31
2023-05-17T01:16:56.270Z,36.31
2023-05-17T01:17:56.331Z,36.30
2023-05-17T01:18:56.372Z,36.27
2023-05-17T01:19:56.307Z,36.33
2023-05-17T01:20:56.239Z,36.31
2023-05-17T01:21:56.237Z,36.28
2023-05-17T01:22:56.209Z,36.29
2023-05-17T01:23:56.201Z,36.31
2023-05-17T01:24:56.198Z,36.30
2023-05-17T01:25:56.183Z,36.30
2023-05-17T01:26:56.195Z,36.32
2023-05-17T01:27:56.177Z,36.27
2023-05-17T01:28:56.168Z,36.29
2023-05-17T01:29:56.160Z,36.29
2023-05-17T01:30:56.203Z,36.27
2023-05-17T01:31:56.258Z,36.30
2023-05-17T01:32:56.227Z,36.28
2023-05-17T01:33:56.213Z,36.28
2023-05-17T01:34:56.130Z,36.22
2023-05-17T01:35:56.112Z,36.27
2023-05-17T01:36:56.108Z,36.31
2023-05-17T01:37:56.088Z,36.29
2023-05-17T01:38:56.076Z,36.26
2023-05-17T01:39:56.087Z,36.31
2023-05-17T01:40:56.083Z,36.27
2023-05-17T01:41:56.091Z,36.30
2023-05-17T01:42:56.074Z,36.25
2023-05-17T01:43:56.070Z,36.28
2023-05-17T01:44:56.057Z,36.29
2023-05-17T01:45:56.048Z,36.30
2023-05-17T01:46:56.020Z,36.23
2023-05-17T01:47:56.157Z,36.29
2023-05-17T01:48:56.120Z,36.26
2023-05-17T01:49:56.097Z,36.26
2023-05-17T01:50:55.992Z,36.22
2023-05-17T01:51:55.987Z,36.25
2023-05-17T01:52:55.988Z,36.28
2023-05-17T01:53:55.949Z,36.25
2023-05-17T01:54:55.940Z,36.26
2023-05-17T01:55:55.928Z,36.26
2023-05-17T01:56:55.915Z,36.24
2023-05-17T01:57:55.926Z,36.25
2023-05-17T01:58:55.908Z,36.21
2023-05-17T01:59:55.902Z,36.25
2023-05-17T02:00:55.952Z,36.28
2023-05-17T02:01:55.916Z,36.23
2023-05-17T02:02:55.958Z,36.21
2023-05-17T02:03:55.955Z,36.26
2023-05-17T02:04:55.900Z,36.20
2023-05-17T02:05:55.887Z,36.23
2023-05-17T02:06:55.867Z,36.25
2023-05-17T02:07:55.861Z,36.24
2023-05-17T02:08:55.848Z,36.26
2023-05-17T02:09:55.838Z,36.18
2023-05-17T02:10:55.835Z,36.25
2023-05-17T02:11:55.820Z,36.22
2023-05-17T02:12:55.819Z,36.24
2023-05-17T02:13:55.801Z,36.22
2023-05-17T02:14:55.796Z,36.20
2023-05-17T02:15:55.783Z,36.22
2023-05-17T02:16:55.765Z,36.19
2023-05-17T02:17:55.801Z,36.18
2023-05-17T02:18:55.836Z,36.16
2023-05-17T02:19:55.850Z,36.21
2023-05-17T02:20:55.724Z,36.20
2023-05-17T02:21:55.716Z,36.16
2023-05-17T02:22:55.696Z,36.16
2023-05-17T02:23:55.700Z,36.18
2023-05-17T02:24:55.690Z,36.22
2023-05-17T02:25:55.682Z,36.20
2023-05-17T02:26:55.681Z,36.21
2023-05-17T02:27:55.694Z,36.19
2023-05-17T02:28:55.677Z,36.16
2023-05-17T02:29:55.661Z,36.18
2023-05-17T02:30:55.653Z,36.15
2023-05-17T02:31:55.641Z,36.16
2023-05-17T02:32:55.688Z,36.16
2023-05-17T02:33:55.737Z,36.16
2023-05-17T02:34:55.627Z,36.20
2023-05-17T02:35:55.725Z,36.17
2023-05-17T02:36:55.605Z,36.20
2023-05-17T02:37:55.610Z,36.15
2023-05-17T02:38:55.607Z,36.15
2023-05-17T02:39:55.587Z,36.16
2023-05-17T02:40:55.576Z,36.16
2023-05-17T02:41:55.574Z,36.14
2023-05-17T02:42:55.569Z,36.19
2023-05-17T02:43:55.561Z,36.17
2023-05-17T02:44:55.556Z,36.17
2023-05-17T02:45:55.551Z,36.19
2023-05-17T02:46:55.560Z,36.18
2023-05-17T02:47:55.563Z,36.17
2023-05-17T02:48:55.545Z,36.17
2023-05-17T02:49:55.547Z,36.13
2023-05-17T02:50:55.539Z,36.15
2023-05-17T02:51:55.693Z,36.20
2023-05-17T02:52:55.535Z,36.19
2023-05-17T02:53:55.529Z,36.17
2023-05-17T02:54:55.531Z,36.16
2023-05-17T02:55:55.526Z,36.17
2023-05-17T02:56:55.519Z,36.11
2023-05-17T02:57:55.507Z,36.14
2023-05-17T02:58:55.503Z,36.14
2023-05-17T02:59:55.512Z,36.20
2023-05-17T03:00:55.492Z,36.16
2023-05-17T03:01:55.481Z,36.14
2023-05-17T03:02:55.530Z,36.11
2023-05-17T03:03:55.713Z,36.13
2023-05-17T03:04:55.476Z,36.15
2023-05-17T03:05:55.470Z,36.11
2023-05-17T03:06:55.457Z,36.13
2023-05-17T03:07:55.614Z,36.11
2023-05-17T03:08:55.474Z,36.16
2023-05-17T03:09:55.456Z,36.16
2023-05-17T03:10:55.467Z,36.13
2023-05-17T03:11:55.447Z,36.14
2023-05-17T03:12:55.445Z,36.10
2023-05-17T03:13:55.444Z,36.11
2023-05-17T03:14:55.435Z,36.11
2023-05-17T03:15:55.414Z,36.16
2023-05-17T03:16:55.409Z,36.14
2023-05-17T03:17:55.454Z,36.14
2023-05-17T03:18:55.576Z,36.11
2023-05-17T03:19:55.637Z,36.10
2023-05-17T03:20:55.385Z,36.10
2023-05-17T03:21:55.371Z,36.11
2023-05-17T03:22:55.343Z,36.11
2023-05-17T03:23:55.436Z,36.16
2023-05-17T03:24:55.312Z,36.13
2023-05-17T03:25:55.303Z,36.13
2023-05-17T03:26:55.324Z,36.09
2023-05-17T03:27:55.301Z,36.12
2023-05-17T03:28:55.304Z,36.08
2023-05-17T03:29:55.298Z,36.10
2023-05-17T03:30:55.400Z,36.09
2023-05-17T03:31:55.308Z,36.03
2023-05-17T03:32:55.395Z,36.02
2023-05-17T03:33:55.374Z,36.05
2023-05-17T03:34:55.348Z,36.06
2023-05-17T03:35:55.360Z,36.01
2023-05-17T03:36:55.354Z,36.00
2023-05-17T03:37:55.375Z,36.00
2023-05-17T03:38:55.390Z,36.01
2023-05-17T03:39:55.438Z,35.99
2023-05-17T03:40:55.448Z,36.00
2023-05-17T03:41:55.485Z,35.99
2023-05-17T03:42:55.485Z,35.98
2023-05-17T03:43:55.517Z,35.95
2023-05-17T03:44:55.553Z,35.93
2023-05-17T03:45:55.587Z,35.93
2023-05-17T03:46:55.614Z,35.92
2023-05-17T03:47:55.683Z,35.89
2023-05-17T03:48:55.724Z,35.93
2023-05-17T03:49:55.779Z,35.92
2023-05-17T03:50:55.843Z,35.92
2023-05-17T03:51:55.843Z,35.90
2023-05-17T03:52:55.872Z,35.87
2023-05-17T03:53:55.900Z,35.86
2023-05-17T03:54:55.929Z,35.86
2023-05-17T03:55:56.077Z,35.82
2023-05-17T03:56:55.989Z,35.85
2023-05-17T03:57:56.013Z,35.84
2023-05-17T03:58:56.041Z,35.78
2023-05-17T03:59:56.070Z,35.79
2023-05-17T04:00:56.132Z,35.78
2023-05-17T04:01:56.137Z,35.78
2023-05-17T04:02:56.196Z,35.77
2023-05-17T04:03:56.237Z,35.73
2023-05-17T04:04:56.288Z,35.79
2023-05-17T04:05:56.384Z,35.73
2023-05-17T04:06:56.393Z,35.72
2023-05-17T04:07:56.436Z,35.71
2023-05-17T04:08:56.488Z,35.70
2023-05-17T04:09:56.540Z,35.70
2023-05-17T04:10:56.584Z,35.67
2023-05-17T04:11:56.798Z,35.70
2023-05-17T04:12:56.695Z,35.70
2023-05-17T04:13:56.715Z,35.70
2023-05-17T04:14:56.729Z,35.68
2023-05-17T04:15:56.756Z,35.66
2023-05-17T04:16:56.809Z,35.68
2023-05-17T04:17:56.945Z,35.73
2023-05-17T04:18:56.981Z,35.63
2023-05-17T04:19:57.007Z,35.67
2023-05-17T04:20:57.024Z,35.68
2023-05-17T04:21:57.105Z,35.63
2023-05-17T04:22:57.141Z,35.69
2023-05-17T04:23:57.214Z,35.69
2023-05-17T04:24:57.254Z,35.69
2023-05-17T04:25:57.295Z,35.65
2023-05-17T04:26:57.359Z,35.66
2023-05-17T04:27:57.536Z,35.65
2023-05-17T04:28:57.456Z,35.59
2023-05-17T04:29:57.514Z,35.62
2023-05-17T04:30:57.578Z,35.66
2023-05-17T04:31:57.632Z,35.63
2023-05-17T04:32:57.708Z,35.64
2023-05-17T04:33:57.852Z,35.62
2023-05-17T04:34:57.800Z,35.58
2023-05-17T04:35:57.821Z,35.59
2023-05-17T04:36:57.862Z,35.60
2023-05-17T04:37:57.919Z,35.59
2023-05-17T04:38:57.961Z,35.61
2023-05-17T04:39:58.017Z,35.58
2023-05-17T04:40:58.067Z,35.56
2023-05-17T04:41:58.155Z,35.57
2023-05-17T04:42:58.172Z,35.59
2023-05-17T04:43:58.344Z,35.58
2023-05-17T04:44:58.263Z,35.61
2023-05-17T04:45:58.329Z,35.57
2023-05-17T04:46:58.363Z,35.56
2023-05-17T04:47:58.441Z,35.58
2023-05-17T04:48:58.751Z,35.55
2023-05-17T04:49:58.494Z,35.61
2023-05-17T04:50:58.537Z,35.60
2023-05-17T04:51:58.573Z,35.55
2023-05-17T04:52:58.630Z,35.54
2023-05-17T04:53:58.712Z,35.55
2023-05-17T04:54:58.733Z,35.54
2023-05-17T04:55:58.794Z,35.56
2023-05-17T04:56:58.841Z,35.56
2023-05-17T04:57:58.877Z,35.52
2023-05-17T04:58:58.942Z,35.52
2023-05-17T04:59:59.158Z,35.55
2023-05-17T05:00:59.051Z,35.50
2023-05-17T05:01:59.073Z,35.52
2023-05-17T05:02:59.132Z,35.51
2023-05-17T05:03:59.280Z,35.53
2023-05-17T05:04:59.234Z,35.49
2023-05-17T05:05:59.250Z,35.51
2023-05-17T05:06:59.301Z,35.52
2023-05-17T05:07:59.349Z,35.51
2023-05-17T05:08:59.407Z,35.49
2023-05-17T05:09:59.450Z,35.45
2023-05-17T05:10:59.499Z,35.10
2023-05-17T05:11:59.537Z,35.15
2023-05-17T05:12:59.595Z,35.09
2023-05-17T05:13:59.662Z,35.08
2023-05-17T05:15:00.961Z,34.94
2023-05-17T05:16:00.060Z,34.96
2023-05-17T05:16:59.980Z,34.72
2023-05-17T05:18:00.088Z,34.69
2023-05-17T05:19:00.764Z,34.57
2023-05-17T05:20:00.287Z,33.99
2023-05-17T05:21:00.151Z,34.18
2023-05-17T05:22:00.196Z,34.24
2023-05-17T05:23:00.520Z,34.12
2023-05-17T05:24:00.290Z,34.09
2023-05-17T05:25:00.370Z,34.09
2023-05-17T05:26:00.395Z,34.09
2023-05-17T05:27:00.447Z,34.19
2023-05-17T05:28:00.493Z,34.17
2023-05-17T05:29:00.560Z,34.14
2023-05-17T05:30:00.625Z,34.10
2023-05-17T05:31:00.662Z,34.11
2023-05-17T05:32:00.856Z,34.14
2023-05-17T05:33:01.119Z,34.01
2023-05-17T05:34:00.816Z,33.98
2023-05-17T05:35:00.825Z,33.99
2023-05-17T05:36:00.953Z,33.76
2023-05-17T05:37:00.930Z,33.76
2023-05-17T05:38:01.058Z,33.80
2023-05-17T05:39:01.031Z,33.71
2023-05-17T05:40:01.113Z,33.82
2023-05-17T05:41:01.140Z,33.87
2023-05-17T05:42:01.220Z,33.70
2023-05-17T05:43:01.537Z,33.78
2023-05-17T05:44:01.322Z,33.83
2023-05-17T05:45:01.365Z,33.72
2023-05-17T05:46:01.398Z,33.87
2023-05-17T05:47:01.548Z,33.88
2023-05-17T05:48:01.771Z,33.88
2023-05-17T05:49:01.538Z,33.87
2023-05-17T05:50:01.502Z,33.87
2023-05-17T05:51:01.546Z,33.86
2023-05-17T05:52:01.608Z,33.89
2023-05-17T05:53:14.394Z,33.88
2023-05-17T05:54:04.859Z,33.98
2023-05-17T05:55:02.045Z,34.12
2023-05-17T05:57:02.598Z,34.52
2023-05-17T05:58:01.572Z,34.59
2023-05-17T05:59:02.051Z,34.67
2023-05-17T06:00:01.542Z,34.73
2023-05-17T06:01:02.902Z,34.81
2023-05-17T06:02:01.495Z,34.88
2023-05-17T06:03:01.645Z,34.91
2023-05-17T06:04:17.242Z,35.03
2023-05-17T06:05:01.442Z,35.09
2023-05-17T06:06:08.884Z,35.05
2023-05-17T06:07:01.581Z,35.16
2023-05-17T06:08:01.572Z,35.23
2023-05-17T06:09:01.379Z,35.10
2023-05-17T06:10:01.350Z,35.20
2023-05-17T06:11:01.323Z,35.19
2023-05-17T06:12:01.306Z,35.19
2023-05-17T06:13:01.555Z,35.26
2023-05-17T06:14:01.264Z,35.27
2023-05-17T06:15:01.238Z,35.31
2023-05-17T06:16:16.838Z,35.27
2023-05-17T06:17:01.195Z,35.25
2023-05-17T06:18:01.730Z,35.24
2023-05-17T06:19:01.304Z,35.24
2023-05-17T06:20:01.201Z,35.31
2023-05-17T06:21:01.149Z,35.24
2023-05-17T06:22:01.067Z,35.28
2023-05-17T06:23:01.069Z,35.26
2023-05-17T06:24:02.754Z,35.27
2023-05-17T06:25:00.978Z,35.29
2023-05-17T06:26:00.965Z,35.23
2023-05-17T06:27:00.940Z,35.28
2023-05-17T06:28:00.920Z,35.28
2023-05-17T06:29:00.911Z,35.29
2023-05-17T06:30:01.684Z,35.18
2023-05-17T06:31:01.057Z,35.22
2023-05-17T06:32:00.873Z,35.19
2023-05-17T06:33:01.176Z,35.17
2023-05-17T06:34:00.871Z,35.14
2023-05-17T06:35:00.786Z,35.03
2023-05-17T06:36:59.753Z,34.95
2023-05-17T06:38:01.056Z,34.87
2023-05-17T06:39:00.703Z,34.89
2023-05-17T06:40:10.292Z,34.86
2023-05-17T06:41:00.659Z,34.89
2023-05-17T06:42:00.652Z,34.89
2023-05-17T06:43:01.059Z,34.73
2023-05-17T06:44:00.595Z,34.85
2023-05-17T06:45:00.571Z,34.82
2023-05-17T06:46:00.565Z,34.77
2023-05-17T06:47:00.534Z,34.77
2023-05-17T06:48:00.684Z,34.86
2023-05-17T06:49:01.865Z,35.13
2023-05-17T06:50:07.961Z,35.05
2023-05-17T06:51:00.646Z,34.97
2023-05-17T06:52:03.802Z,34.93
2023-05-17T06:53:03.688Z,34.86
2023-05-17T06:54:00.589Z,34.78
2023-05-17T06:55:00.452Z,34.69
2023-05-17T06:57:07.760Z,34.66
2023-05-17T06:58:01.332Z,34.58
2023-05-17T06:59:02.326Z,34.38
2023-05-17T07:00:01.372Z,34.47
2023-05-17T07:01:07.725Z,34.05
2023-05-17T07:02:03.436Z,33.18
2023-05-17T07:04:00.354Z,32.71
2023-05-17T07:05:08.093Z,32.48
2023-05-17T07:06:01.418Z,32.42
2023-05-17T07:07:00.345Z,32.06
2023-05-17T07:08:01.033Z,31.95
2023-05-17T07:09:15.694Z,31.86
2023-05-17T07:10:00.058Z,31.76
2023-05-17T07:11:00.047Z,31.73
2023-05-17T07:12:00.061Z,31.70
2023-05-17T07:13:00.083Z,31.61
2023-05-17T07:13:59.994Z,31.66
2023-05-17T07:14:59.971Z,31.63
2023-05-17T07:15:59.937Z,31.60
2023-05-17T07:16:59.935Z,31.68
2023-05-17T07:18:00.178Z,31.46
2023-05-17T07:19:00.204Z,31.53
2023-05-17T07:20:00.004Z,31.46
2023-05-17T07:20:59.838Z,31.54
2023-05-17T07:21:59.828Z,31.59
2023-05-17T07:22:59.800Z,31.65
2023-05-17T07:24:00.189Z,31.61
2023-05-17T07:24:59.772Z,31.47
2023-05-17T07:25:59.752Z,31.70
2023-05-17T07:26:59.741Z,31.52
2023-05-17T07:27:59.777Z,31.42
2023-05-17T07:28:59.712Z,31.38
2023-05-17T07:30:00.082Z,31.69
2023-05-17T07:30:59.682Z,31.95
2023-05-17T07:31:59.660Z,31.97
2023-05-17T07:33:00.152Z,32.07
2023-05-17T07:33:59.656Z,32.18
2023-05-17T07:35:00.663Z,32.17
2023-05-17T07:36:01.117Z,32.17
2023-05-17T07:36:59.746Z,32.39
2023-05-17T07:38:00.788Z,32.46
2023-05-17T07:39:03.111Z,32.57
2023-05-17T07:40:00.089Z,32.63
2023-05-17T07:40:59.764Z,32.68
2023-05-17T07:42:07.232Z,32.76
2023-05-17T07:43:03.396Z,32.72
2023-05-17T07:43:59.713Z,32.80
2023-05-17T07:44:59.697Z,32.64
2023-05-17T07:45:59.671Z,32.78
2023-05-17T07:47:00.731Z,32.86
2023-05-17T07:48:00.231Z,33.02
2023-05-17T07:48:59.699Z,33.09
2023-05-17T07:49:59.603Z,33.17
2023-05-17T07:50:59.594Z,33.16
2023-05-17T07:52:00.087Z,33.24
2023-05-17T07:52:59.602Z,33.24
2023-05-17T07:53:59.602Z,33.25
2023-05-17T07:54:59.530Z,33.23
2023-05-17T07:55:59.468Z,33.23
2023-05-17T07:56:59.445Z,32.99
2023-05-17T07:58:00.580Z,33.12
2023-05-17T07:59:02.651Z,33.21
2023-05-17T08:00:06.752Z,33.04
2023-05-17T08:01:02.576Z,33.06
2023-05-17T08:02:06.926Z,33.12
2023-05-17T08:02:59.645Z,33.19
2023-05-17T08:03:59.291Z,33.20
2023-05-17T08:04:59.238Z,33.24
2023-05-17T08:05:59.269Z,33.41
2023-05-17T08:06:59.179Z,33.56
2023-05-17T08:07:59.599Z,33.56
2023-05-17T08:08:59.150Z,33.59
2023-05-17T08:09:59.164Z,33.71
2023-05-17T08:10:59.124Z,33.68
2023-05-17T08:11:59.079Z,33.60
2023-05-17T08:12:59.092Z,33.72
2023-05-17T08:13:59.029Z,33.67
2023-05-17T08:14:59.005Z,33.70
2023-05-17T08:16:08.879Z,33.64
2023-05-17T08:16:58.938Z,33.65
2023-05-17T08:18:00.367Z,33.22
2023-05-17T08:18:58.992Z,32.96
2023-05-17T08:19:58.964Z,32.88
2023-05-17T08:20:58.841Z,32.85
2023-05-17T08:21:58.809Z,32.63
2023-05-17T08:22:59.100Z,32.46
2023-05-17T08:23:58.786Z,32.54
2023-05-17T08:24:58.757Z,32.60
2023-05-17T08:25:58.729Z,32.67
2023-05-17T08:26:58.752Z,32.71
2023-05-17T08:27:59.104Z,32.60
2023-05-17T08:28:58.669Z,32.64
2023-05-17T08:29:58.657Z,32.63
2023-05-17T08:30:58.643Z,32.54
2023-05-17T08:31:59.597Z,32.56
2023-05-17T08:32:58.937Z,32.68
2023-05-17T08:33:58.653Z,32.35
2023-05-17T08:34:58.550Z,32.56
2023-05-17T08:35:58.529Z,32.61
2023-05-17T08:36:58.648Z,32.54
2023-05-17T08:37:58.511Z,32.49
2023-05-17T08:38:58.451Z,32.47
2023-05-17T08:39:58.460Z,32.42
2023-05-17T08:40:59.445Z,32.41
2023-05-17T08:41:59.422Z,32.46
2023-05-17T08:43:02.361Z,32.42
2023-05-17T08:43:58.613Z,32.56
2023-05-17T08:44:58.603Z,32.66
2023-05-17T08:46:01.838Z,32.65
2023-05-17T08:46:58.952Z,32.68
2023-05-17T08:47:58.718Z,32.64
2023-05-17T08:48:58.454Z,32.54
2023-05-17T08:49:58.480Z,32.49
2023-05-17T08:50:58.604Z,32.60
2023-05-17T08:51:58.599Z,32.51
2023-05-17T08:52:58.356Z,32.53
2023-05-17T08:53:58.290Z,32.47
2023-05-17T08:54:58.603Z,32.42
2023-05-17T08:55:58.247Z,32.60
2023-05-17T08:56:58.605Z,32.42
2023-05-17T08:57:58.400Z,32.51
2023-05-17T08:58:58.431Z,32.66
2023-05-17T08:59:58.137Z,32.47
2023-05-17T09:00:58.138Z,32.37
2023-05-17T09:01:58.112Z,32.61
2023-05-17T09:02:58.713Z,32.62
2023-05-17T09:03:58.885Z,32.54
2023-05-17T09:04:58.300Z,32.41
2023-05-17T09:05:58.393Z,32.41
2023-05-17T09:06:58.318Z,32.33
2023-05-17T09:07:58.386Z,32.35
2023-05-17T09:08:58.615Z,32.37
2023-05-17T09:09:58.479Z,32.47
2023-05-17T09:10:58.514Z,32.37
2023-05-17T09:11:58.550Z,32.35
2023-05-17T09:12:59.195Z,32.39
2023-05-17T09:13:57.647Z,32.35
2023-05-17T09:14:58.731Z,32.45
2023-05-17T09:15:58.757Z,32.38
2023-05-17T09:16:58.808Z,32.33
2023-05-17T09:17:59.219Z,32.40
2023-05-17T09:18:59.342Z,32.45
2023-05-17T09:19:59.268Z,32.49
2023-05-17T09:20:58.970Z,32.52
2023-05-17T09:21:59.036Z,32.35
2023-05-17T09:22:59.114Z,32.37
2023-05-17T09:24:06.464Z,32.42
2023-05-17T09:24:59.082Z,32.47
2023-05-17T09:25:59.098Z,32.21
2023-05-17T09:26:59.058Z,32.33
2023-05-17T09:28:00.137Z,32.20
2023-05-17T09:28:59.057Z,32.42
2023-05-17T09:29:59.145Z,32.34
2023-05-17T09:30:59.031Z,32.22
2023-05-17T09:31:58.982Z,32.34
2023-05-17T09:32:58.979Z,32.31
2023-05-17T09:34:02.295Z,32.20
2023-05-17T09:34:59.120Z,32.35
2023-05-17T09:35:58.914Z,32.32
2023-05-17T09:36:59.117Z,32.31
2023-05-17T09:38:02.332Z,32.38
2023-05-17T09:38:58.960Z,32.12
2023-05-17T09:39:58.855Z,32.30
2023-05-17T09:41:02.039Z,32.37
2023-05-17T09:41:59.134Z,32.44
2023-05-17T09:42:59.125Z,32.44
2023-05-17T09:43:58.788Z,32.52
2023-05-17T09:44:58.777Z,32.44
2023-05-17T09:45:58.771Z,32.50
2023-05-17T09:46:58.759Z,32.48
2023-05-17T09:48:06.635Z,32.55
2023-05-17T09:48:58.882Z,32.60
2023-05-17T09:49:59.130Z,32.74
2023-05-17T09:51:01.843Z,32.62
2023-05-17T09:51:59.640Z,32.75
2023-05-17T09:52:58.617Z,32.67
2023-05-17T09:53:58.627Z,32.82
2023-05-17T09:54:58.701Z,32.78
2023-05-17T09:55:58.573Z,32.70
2023-05-17T09:56:58.531Z,32.82
2023-05-17T09:57:58.513Z,32.74
2023-05-17T09:58:58.598Z,32.89
2023-05-17T09:59:58.510Z,32.90
2023-05-17T10:00:58.563Z,32.95
2023-05-17T10:01:58.603Z,32.89
2023-05-17T10:02:58.834Z,32.85
2023-05-17T10:03:59.177Z,32.98
2023-05-17T10:04:59.191Z,32.84
2023-05-17T10:05:58.766Z,32.89
2023-05-17T10:06:58.800Z,32.88
2023-05-17T10:07:58.834Z,32.95
2023-05-17T10:08:58.866Z,33.04
2023-05-17T10:09:58.894Z,33.07
2023-05-17T10:10:58.930Z,33.11
2023-05-17T10:11:58.961Z,33.15
2023-05-17T10:12:58.989Z,33.13
2023-05-17T10:13:59.147Z,33.18
2023-05-17T10:14:59.097Z,33.27
2023-05-17T10:15:59.077Z,33.33
2023-05-17T10:17:02.312Z,33.27
2023-05-17T10:17:59.211Z,33.23
2023-05-17T10:18:59.133Z,33.35
2023-05-17T10:19:59.161Z,33.31
2023-05-17T10:20:58.027Z,33.40
2023-05-17T10:22:11.136Z,33.45
2023-05-17T10:22:58.994Z,33.30
2023-05-17T10:24:02.349Z,33.30
2023-05-17T10:24:59.169Z,33.27
2023-05-17T10:25:58.907Z,33.29
2023-05-17T10:26:58.890Z,33.26
2023-05-17T10:27:58.854Z,33.18
2023-05-17T10:28:58.833Z,33.32
2023-05-17T10:29:59.149Z,33.39
2023-05-17T10:30:58.803Z,33.36
2023-05-17T10:31:58.813Z,33.45
2023-05-17T10:32:58.897Z,33.43
2023-05-17T10:33:58.795Z,33.41
2023-05-17T10:35:10.337Z,33.52
2023-05-17T10:35:58.697Z,33.58
2023-05-17T10:36:58.683Z,33.60
2023-05-17T10:37:58.652Z,33.56
2023-05-17T10:38:58.653Z,33.59
2023-05-17T10:39:58.611Z,33.66
2023-05-17T10:40:59.367Z,33.80
2023-05-17T10:42:13.405Z,33.68
2023-05-17T10:42:58.562Z,33.68
2023-05-17T10:43:58.537Z,33.78
2023-05-17T10:44:58.644Z,33.78
2023-05-17T10:45:58.493Z,33.84
2023-05-17T10:46:58.472Z,33.78
2023-05-17T10:48:00.926Z,33.85
2023-05-17T10:48:58.691Z,33.87
2023-05-17T10:49:58.411Z,33.72
2023-05-17T10:51:01.690Z,33.81
2023-05-17T10:51:58.360Z,33.94
2023-05-17T10:52:58.330Z,33.84
2023-05-17T10:53:58.645Z,33.87
2023-05-17T10:54:58.281Z,33.90
2023-05-17T10:55:58.252Z,33.99
2023-05-17T10:56:58.236Z,33.92
2023-05-17T10:57:58.218Z,33.99
2023-05-17T10:58:58.196Z,33.84
2023-05-17T10:59:58.172Z,33.77
2023-05-17T11:00:58.141Z,33.89
2023-05-17T11:01:58.114Z,33.62
2023-05-17T11:02:58.173Z,33.91
2023-05-17T11:03:58.068Z,33.98
2023-05-17T11:04:58.240Z,34.02
2023-05-17T11:05:58.029Z,33.96
2023-05-17T11:06:58.033Z,33.95
2023-05-17T11:07:57.960Z,33.66
2023-05-17T11:08:58.163Z,33.76
2023-05-17T11:09:57.913Z,33.82
2023-05-17T11:10:57.893Z,33.92
2023-05-17T11:11:57.869Z,33.86
2023-05-17T11:12:58.153Z,33.66
2023-05-17T11:13:57.839Z,33.84
2023-05-17T11:14:57.807Z,33.82
2023-05-17T11:15:57.775Z,33.87
2023-05-17T11:16:58.464Z,34.01
2023-05-17T11:17:57.782Z,34.10
2023-05-17T11:18:58.402Z,34.03
2023-05-17T11:19:57.849Z,34.00
2023-05-17T11:20:57.818Z,33.98
2023-05-17T11:21:57.690Z,34.06
2023-05-17T11:22:57.752Z,34.05
2023-05-17T11:23:57.678Z,34.03
2023-05-17T11:24:57.688Z,33.97
2023-05-17T11:26:09.120Z,34.02
2023-05-17T11:26:57.631Z,34.15
2023-05-17T11:27:57.615Z,34.05
2023-05-17T11:28:57.588Z,34.12
2023-05-17T11:29:57.604Z,34.19
2023-05-17T11:30:57.527Z,34.12
2023-05-17T11:31:57.506Z,34.09
2023-05-17T11:32:57.511Z,34.09
2023-05-17T11:33:57.486Z,34.01
2023-05-17T11:34:57.441Z,33.76
2023-05-17T11:35:57.429Z,33.85
2023-05-17T11:36:57.429Z,34.02
2023-05-17T11:37:57.375Z,34.14
2023-05-17T11:39:07.459Z,34.15
2023-05-17T11:39:57.327Z,34.18
2023-05-17T11:40:57.304Z,34.22
2023-05-17T11:41:57.274Z,34.17
2023-05-17T11:42:57.245Z,34.15
2023-05-17T11:43:57.233Z,34.14
2023-05-17T11:44:57.201Z,34.17
2023-05-17T11:45:57.168Z,34.19
2023-05-17T11:46:57.158Z,34.19
2023-05-17T11:47:57.221Z,34.12
2023-05-17T11:48:57.250Z,34.15
2023-05-17T11:49:57.072Z,34.18
2023-05-17T11:50:57.079Z,34.18
2023-05-17T11:51:57.022Z,34.11
2023-05-17T11:52:56.987Z,34.11
2023-05-17T11:53:56.967Z,34.20
2023-05-17T11:54:56.974Z,34.15
2023-05-17T11:55:56.923Z,34.20
2023-05-17T11:56:56.904Z,34.15
2023-05-17T11:57:56.869Z,34.18
2023-05-17T11:58:56.850Z,34.16
2023-05-17T11:59:57.172Z,34.19
2023-05-17T12:00:56.830Z,34.23
2023-05-17T12:01:56.797Z,34.14
2023-05-17T12:02:56.796Z,34.14
2023-05-17T12:03:56.730Z,34.03
2023-05-17T12:04:56.907Z,34.10
2023-05-17T12:05:56.730Z,34.16
2023-05-17T12:06:56.689Z,34.21
2023-05-17T12:07:56.647Z,34.32
2023-05-17T12:08:56.683Z,34.25
2023-05-17T12:09:56.628Z,34.16
2023-05-17T12:10:56.719Z,34.21
2023-05-17T12:11:56.566Z,34.13
2023-05-17T12:12:56.549Z,34.18
2023-05-17T12:13:56.536Z,34.23
2023-05-17T12:14:56.516Z,34.29
2023-05-17T12:15:56.478Z,34.22
2023-05-17T12:16:56.688Z,34.26
2023-05-17T12:17:56.623Z,34.22
2023-05-17T12:18:56.831Z,34.19
2023-05-17T12:19:56.540Z,34.16
2023-05-17T12:20:56.364Z,34.17
2023-05-17T12:21:56.347Z,34.24
2023-05-17T12:22:56.326Z,34.19
2023-05-17T12:23:56.301Z,34.03
2023-05-17T12:24:56.376Z,34.00
2023-05-17T12:25:56.257Z,34.16
2023-05-17T12:26:56.280Z,34.03
2023-05-17T12:27:56.223Z,34.10
2023-05-17T12:28:59.386Z,34.16
2023-05-17T12:29:56.164Z,34.12
2023-05-17T12:30:56.134Z,34.10
2023-05-17T12:31:56.110Z,34.14
2023-05-17T12:32:56.157Z,34.07
2023-05-17T12:33:56.079Z,34.04
2023-05-17T12:34:56.036Z,33.99
2023-05-17T12:35:56.001Z,34.03
2023-05-17T12:36:55.966Z,34.08
2023-05-17T12:37:55.968Z,34.02
2023-05-17T12:38:55.918Z,34.00
2023-05-17T12:39:55.883Z,34.02
2023-05-17T12:40:55.855Z,34.02
2023-05-17T12:41:55.838Z,33.99
2023-05-17T12:42:55.894Z,33.92
2023-05-17T12:44:06.321Z,33.91
2023-05-17T12:44:55.743Z,33.89
2023-05-17T12:45:55.715Z,33.91
2023-05-17T12:46:56.547Z,33.88
2023-05-17T12:47:56.348Z,33.87
2023-05-17T12:48:55.683Z,33.67
2023-05-17T12:49:55.598Z,33.70
2023-05-17T12:50:55.686Z,33.83
2023-05-17T12:51:55.544Z,33.82
2023-05-17T12:52:55.507Z,33.79
2023-05-17T12:53:55.482Z,33.74
2023-05-17T12:54:55.458Z,33.74
2023-05-17T12:55:55.688Z,33.78
2023-05-17T12:56:55.417Z,33.70